Time;durP1;ratioP1;P1;durP2;ratioP2;P2;SDS_P1;SDS_P2;PMS_P1;PMS_P2;Temp;Humidity;BMP_temperature;BMP_pressure;BME280_temperature;BME280_humidity;BME280_pressure;Samples;Min_cycle;Max_cycle;Signal;HPM_P1;HPM_P2
2021/12/11 00:01:06;;;;;;;;;;;2.40;99.90;;;;;;4966527;28;20027;-70
2021/12/11 00:03:40;;;;;;;2.78;0.93;;;2.40;99.90;;;;;;4960223;28;19946;-70
2021/12/11 00:06:19;;;;;;;7.65;3.20;;;2.30;99.90;;;;;;4967107;28;20459;-71
2021/12/11 00:08:47;;;;;;;1.67;1.05;;;2.30;99.90;;;;;;4967189;28;20035;-70
2021/12/11 00:11:23;;;;;;;1.70;1.05;;;2.30;99.90;;;;;;4973689;28;20031;-71
2021/12/11 00:13:55;;;;;;;1.42;0.80;;;2.40;99.90;;;;;;4974535;28;20089;-71
2021/12/11 00:16:22;;;;;;;2.65;0.98;;;2.30;99.90;;;;;;4973642;28;20121;-70
2021/12/11 00:18:55;;;;;;;1.33;1.02;;;2.40;99.90;;;;;;4973879;28;20360;-70
2021/12/11 00:21:24;;;;;;;1.33;0.93;;;2.40;99.90;;;;;;4973456;28;20031;-71
2021/12/11 00:24:04;;;;;;;1.15;0.80;;;2.40;99.90;;;;;;4973965;28;20431;-70
2021/12/11 00:26:37;;;;;;;1.08;0.73;;;2.50;99.90;;;;;;4973562;28;20058;-70
2021/12/11 00:29:04;;;;;;;1.17;0.77;;;2.50;99.90;;;;;;4989284;28;20458;-69
2021/12/11 00:31:31;;;;;;;1.63;1.00;;;2.50;99.90;;;;;;4992911;28;20064;-69
2021/12/11 00:33:58;;;;;;;1.23;0.90;;;2.50;99.90;;;;;;4991382;28;20567;-69
2021/12/11 00:36:32;;;;;;;1.45;0.45;;;2.50;99.90;;;;;;4973460;28;20031;-69
2021/12/11 00:39:05;;;;;;;2.70;0.85;;;2.60;99.90;;;;;;4973810;28;20066;-69
2021/12/11 00:41:33;;;;;;;3.40;0.50;;;2.50;99.90;;;;;;4973514;28;20030;-69
2021/12/11 00:44:01;;;;;;;2.03;0.70;;;2.60;99.90;;;;;;4973809;28;20038;-69
2021/12/11 00:46:28;;;;;;;4.13;1.10;;;2.60;99.90;;;;;;4973113;28;20027;-69
2021/12/11 00:49:05;;;;;;;1.65;0.82;;;2.50;99.90;;;;;;4973801;28;20031;-69
2021/12/11 00:51:31;;;;;;;2.35;0.90;;;2.60;99.90;;;;;;4972425;28;20031;-70
2021/12/11 00:53:58;;;;;;;3.72;1.00;;;2.50;99.90;;;;;;4973547;28;20037;-69
2021/12/11 00:56:28;;;;;;;2.15;1.08;;;2.50;99.90;;;;;;4972627;28;20082;-69
2021/12/11 00:58:56;;;;;;;;;;;2.50;99.90;;;;;;4974382;28;20038;-69
2021/12/11 01:01:28;;;;;;;1.95;1.45;;;2.60;99.90;;;;;;4973665;28;19906;-69
2021/12/11 01:04:11;;;;;;;2.58;1.70;;;2.50;99.90;;;;;;4973482;28;20413;-71
2021/12/11 01:07:07;;;;;;;3.17;1.60;;;2.40;99.90;;;;;;4963145;28;20065;-69
2021/12/11 01:09:36;;;;;;;2.92;1.67;;;2.20;99.90;;;;;;4953106;29;20043;-69
2021/12/11 01:12:11;;;;;;;2.07;1.83;;;2.10;99.90;;;;;;4955919;28;20031;-71
2021/12/11 01:14:56;;;;;;;3.05;1.85;;;2.10;99.90;;;;;;4972881;28;20049;-70
2021/12/11 01:17:45;;;;;;;3.95;2.20;;;2.00;99.90;;;;;;4972775;28;20162;-72
2021/12/11 01:20:22;;;;;;;2.08;1.70;;;1.80;99.90;;;;;;4973358;28;20026;-71
2021/12/11 01:22:48;;;;;;;2.78;1.90;;;1.70;99.90;;;;;;4973536;28;20052;-71
2021/12/11 01:25:14;;;;;;;3.42;2.03;;;1.60;99.90;;;;;;4973412;28;20496;-70
2021/12/11 01:27:45;;;;;;;3.10;2.13;;;1.60;99.90;;;;;;4972733;28;20058;-71
2021/12/11 01:30:21;;;;;;;3.42;1.88;;;1.50;99.90;;;;;;4973117;28;20039;-70
2021/12/11 01:32:47;;;;;;;2.75;1.67;;;1.50;99.90;;;;;;4973423;28;20469;-70
2021/12/11 01:35:15;;;;;;;2.55;1.80;;;1.50;99.90;;;;;;4973226;28;20058;-70
2021/12/11 01:37:42;;;;;;;2.67;1.40;;;1.40;99.90;;;;;;4973386;28;20031;-70
2021/12/11 01:40:11;;;;;;;3.03;1.48;;;1.40;99.90;;;;;;4973198;28;20031;-70
2021/12/11 01:42:39;;;;;;;4.50;2.20;;;1.50;99.90;;;;;;4972484;28;20077;-70
2021/12/11 01:45:08;;;;;;;2.53;2.20;;;1.40;99.90;;;;;;4973410;28;20364;-70
2021/12/11 01:47:37;;;;;;;2.58;2.10;;;1.40;99.90;;;;;;4972802;28;20038;-70
2021/12/11 01:50:17;;;;;;;3.90;2.47;;;1.40;99.90;;;;;;4972574;28;20037;-70
2021/12/11 01:52:52;;;;;;;4.30;2.45;;;1.40;99.90;;;;;;4973389;28;20081;-70
2021/12/11 01:55:31;;;;;;;6.18;2.85;;;1.40;99.90;;;;;;4972655;28;20086;-71
2021/12/11 01:57:58;;;;;;;4.60;3.00;;;1.40;99.90;;;;;;4972733;28;20503;-70
2021/12/11 02:00:49;;;;;;;1.70;1.40;;;1.40;99.90;;;;;;4972016;28;20027;-71
2021/12/11 02:03:19;;;;;;;4.63;2.22;;;1.40;99.90;;;;;;4973105;28;20050;-70
2021/12/11 02:05:45;;;;;;;4.65;2.33;;;1.40;99.90;;;;;;4972770;28;20026;-70
2021/12/11 02:08:16;;;;;;;3.15;1.92;;;1.40;99.90;;;;;;4972832;28;20054;-70
2021/12/11 02:10:58;;;;;;;2.33;1.77;;;1.40;99.90;;;;;;4973039;28;20054;-70
2021/12/11 02:13:39;;;;;;;1.58;1.48;;;1.40;99.90;;;;;;4972174;28;20388;-71
2021/12/11 02:16:13;;;;;;;1.92;0.95;;;1.40;99.90;;;;;;4972748;28;20093;-70
2021/12/11 02:18:44;;;;;;;1.83;0.90;;;1.40;99.90;;;;;;4971858;28;20066;-70
2021/12/11 02:21:21;;;;;;;1.02;0.73;;;1.30;99.90;;;;;;4972586;28;20082;-70
2021/12/11 02:23:56;;;;;;;0.63;0.60;;;1.30;99.90;;;;;;4970280;28;20031;-70
2021/12/11 02:26:22;;;;;;;0.65;0.60;;;1.30;99.90;;;;;;4972283;28;20034;-70
2021/12/11 02:29:04;;;;;;;0.77;0.52;;;1.30;99.90;;;;;;4972963;28;20039;-70
2021/12/11 02:31:35;;;;;;;0.85;0.50;;;1.30;99.90;;;;;;4972484;28;20033;-71
2021/12/11 02:34:44;;;;;;;1.30;0.40;;;1.30;99.90;;;;;;4972677;28;20049;-71
2021/12/11 02:37:20;;;;;;;0.80;0.50;;;1.20;99.90;;;;;;4951904;29;20035;-69
2021/12/11 02:39:51;;;;;;;1.05;0.60;;;1.20;99.90;;;;;;4953691;28;20027;-69
2021/12/11 02:42:43;;;;;;;0.82;0.47;;;1.20;99.90;;;;;;4957013;29;20469;-69
2021/12/11 02:45:17;;;;;;;0.82;0.50;;;1.20;99.90;;;;;;4965905;28;20057;-70
2021/12/11 02:48:03;;;;;;;0.47;0.47;;;1.20;99.90;;;;;;4975677;28;20495;-71
2021/12/11 02:50:46;;;;;;;0.80;0.73;;;1.10;99.90;;;;;;4974974;28;20026;-71
2021/12/11 02:53:29;;;;;;;0.73;0.65;;;1.00;99.90;;;;;;4976132;28;20473;-70
2021/12/11 02:56:15;;;;;;;1.20;0.93;;;1.00;99.90;;;;;;4975541;28;20058;-71
2021/12/11 02:58:46;;;;;;;1.33;0.90;;;1.00;99.90;;;;;;4956021;28;20036;-71
2021/12/11 03:01:58;;;;;;;1.20;1.10;;;1.00;99.90;;;;;;4956897;28;20028;-70
2021/12/11 03:04:39;;;;;;;1.50;1.40;;;1.00;99.90;;;;;;4970555;28;20444;-71
2021/12/11 03:07:09;;;;;;;1.17;0.90;;;1.00;99.90;;;;;;4975996;28;20066;-71
2021/12/11 03:09:37;;;;;;;;;;;1.00;99.90;;;;;;4975565;28;20037;-71
2021/12/11 03:12:06;;;;;;;3.85;1.58;;;1.00;99.90;;;;;;4975806;28;19906;-71
2021/12/11 03:14:32;;;;;;;2.63;1.60;;;1.00;99.90;;;;;;4974833;28;20034;-71
2021/12/11 03:16:58;;;;;;;1.25;1.15;;;1.00;99.90;;;;;;4975702;28;20031;-70
2021/12/11 03:19:29;;;;;;;3.05;1.70;;;1.00;99.90;;;;;;4974838;28;20032;-70
2021/12/11 03:21:57;;;;;;;2.28;1.80;;;1.00;99.90;;;;;;4974711;28;20027;-71
2021/12/11 03:24:25;;;;;;;1.88;1.50;;;1.00;99.90;;;;;;4974818;28;20069;-72
2021/12/11 03:26:52;;;;;;;2.03;1.65;;;1.10;99.90;;;;;;4975151;28;20027;-71
2021/12/11 03:29:18;;;;;;;1.83;1.33;;;1.10;99.90;;;;;;4975119;28;20480;-73
2021/12/11 03:31:45;;;;;;;1.58;1.48;;;1.10;99.90;;;;;;4975539;28;20031;-71
2021/12/11 03:34:15;;;;;;;1.80;1.40;;;1.10;99.90;;;;;;4974724;28;20480;-71
2021/12/11 03:36:41;;;;;;;1.40;1.30;;;1.20;99.90;;;;;;4974747;28;20034;-71
2021/12/11 03:39:21;;;;;;;1.75;1.20;;;1.20;99.90;;;;;;4975172;28;20388;-71
2021/12/11 03:41:47;;;;;;;;;;;1.20;99.90;;;;;;4975554;28;20126;-71
2021/12/11 03:44:14;;;;;;;1.65;1.55;;;1.20;99.90;;;;;;4974855;28;19910;-71
2021/12/11 03:46:41;;;;;;;1.35;1.20;;;1.20;99.90;;;;;;4974374;28;20508;-71
2021/12/11 03:49:13;;;;;;;1.67;1.58;;;1.30;99.90;;;;;;4975022;28;20037;-71
2021/12/11 03:51:42;;;;;;;1.70;1.48;;;1.30;99.90;;;;;;4973337;28;20053;-71
2021/12/11 03:54:14;;;;;;;1.95;1.65;;;1.30;99.90;;;;;;4974344;28;20051;-70
2021/12/11 03:56:40;;;;;;;1.63;1.40;;;1.20;99.90;;;;;;4973905;28;20054;-71
2021/12/11 03:59:10;;;;;;;1.60;1.50;;;1.30;99.90;;;;;;4974859;28;20039;-71
2021/12/11 04:01:41;;;;;;;2.25;2.00;;;1.30;99.90;;;;;;4974280;28;20033;-71
2021/12/11 04:04:15;;;;;;;3.53;1.90;;;1.30;99.90;;;;;;4972221;28;20035;-71
2021/12/11 04:06:41;;;;;;;2.30;1.70;;;1.40;99.90;;;;;;4954876;28;20658;-71
2021/12/11 04:09:10;;;;;;;2.78;2.15;;;1.40;99.90;;;;;;4974608;28;20023;-70
2021/12/11 04:11:37;;;;;;;2.70;1.85;;;1.40;99.90;;;;;;4974068;28;20030;-69
2021/12/11 04:14:08;;;;;;;2.00;1.80;;;1.40;99.90;;;;;;4972735;28;20455;-71
2021/12/11 04:16:34;;;;;;;1.55;1.45;;;1.40;99.90;;;;;;4973997;28;20384;-71
2021/12/11 04:19:01;;;;;;;2.92;1.85;;;1.50;99.90;;;;;;4974577;28;20042;-71
2021/12/11 04:21:27;;;;;;;2.83;2.35;;;1.40;99.90;;;;;;4973406;28;20034;-71
2021/12/11 04:23:53;;;;;;;2.85;2.63;;;1.40;99.90;;;;;;4986343;28;20023;-71
2021/12/11 04:26:19;;;;;;;2.80;2.58;;;1.30;99.90;;;;;;4974552;28;20395;-70
2021/12/11 04:28:46;;;;;;;3.00;2.50;;;1.30;99.90;;;;;;4973754;28;20037;-71
2021/12/11 04:31:18;;;;;;;3.47;2.70;;;1.30;99.90;;;;;;4973972;28;20460;-71
2021/12/11 04:33:48;;;;;;;3.35;3.05;;;1.30;99.90;;;;;;4973521;28;20542;-71
2021/12/11 04:36:16;;;;;;;;;;;1.30;99.90;;;;;;4974584;28;20037;-71
2021/12/11 04:38:43;;;;;;;3.30;3.00;;;1.40;99.90;;;;;;4973636;28;20270;-71
2021/12/11 04:41:22;;;;;;;3.13;2.83;;;1.40;99.90;;;;;;4973930;28;20054;-71
2021/12/11 04:43:51;;;;;;;3.20;2.83;;;1.40;99.90;;;;;;4974037;28;20061;-71
2021/12/11 04:46:17;;;;;;;3.67;3.38;;;1.30;99.90;;;;;;4973704;28;20134;-70
2021/12/11 04:48:58;;;;;;;3.70;3.10;;;1.30;99.90;;;;;;4973125;28;20146;-71
2021/12/11 04:51:32;;;;;;;4.47;3.03;;;1.40;99.90;;;;;;4972737;28;20054;-71
2021/12/11 04:54:18;;;;;;;3.25;2.95;;;1.40;99.90;;;;;;4973815;28;20137;-71
2021/12/11 05:05:24;;;;;;;4.70;3.38;;;1.40;99.90;;;;;;4973158;28;20031;-71
2021/12/11 05:10:38;;;;;;;4.18;3.78;;;1.50;99.90;;;;;;4973520;28;19909;-70
2021/12/11 05:13:05;;;;;;;4.57;4.18;;;1.50;99.90;;;;;;4973436;28;20027;-70
2021/12/11 05:15:37;;;;;;;3.90;3.60;;;1.50;99.90;;;;;;4972824;28;20027;-69
2021/12/11 05:18:09;;;;;;;3.85;3.55;;;1.60;99.90;;;;;;4973029;28;20034;-70
2021/12/11 05:20:37;;;;;;;4.88;4.47;;;1.60;99.90;;;;;;4972479;28;20026;-70
2021/12/11 05:23:03;;;;;;;5.15;4.40;;;1.60;99.90;;;;;;4973561;28;20371;-70
2021/12/11 05:25:30;;;;;;;6.47;5.22;;;1.50;99.90;;;;;;4973288;28;20034;-70
2021/12/11 05:27:57;;;;;;;5.38;4.88;;;1.50;99.90;;;;;;4973257;28;20479;-70
2021/12/11 05:30:33;;;;;;;6.00;5.40;;;1.50;99.90;;;;;;4972985;28;20035;-70
2021/12/11 05:32:59;;;;;;;6.07;5.50;;;1.40;99.90;;;;;;4973639;28;20066;-70
2021/12/11 05:35:27;;;;;;;3.85;3.40;;;1.40;99.90;;;;;;4972624;28;20034;-70
2021/12/11 05:37:53;;;;;;;4.30;3.90;;;1.60;99.90;;;;;;4973413;28;20035;-69
2021/12/11 05:40:22;;;;;;;4.97;4.50;;;1.60;99.90;;;;;;4972934;28;20035;-69
2021/12/11 05:42:49;;;;;;;4.97;4.20;;;1.50;99.90;;;;;;4972626;28;20073;-69
2021/12/11 05:45:15;;;;;;;4.60;4.20;;;1.50;99.90;;;;;;4973664;28;20033;-69
2021/12/11 05:47:41;;;;;;;5.70;5.20;;;1.50;99.90;;;;;;4972973;28;20383;-69
2021/12/11 05:50:14;;;;;;;7.65;5.05;;;1.40;99.90;;;;;;4972679;28;20042;-69
2021/12/11 05:52:39;;;;;;;7.50;6.63;;;1.40;99.90;;;;;;4972857;28;20057;-69
2021/12/11 05:55:10;;;;;;;6.70;6.00;;;1.40;99.90;;;;;;4972844;28;20035;-69
2021/12/11 05:57:37;;;;;;;6.57;5.88;;;1.40;99.90;;;;;;4972648;28;20062;-70
2021/12/11 06:00:10;;;;;;;6.28;5.50;;;1.40;99.90;;;;;;4972787;28;20042;-70
2021/12/11 06:02:36;;;;;;;6.10;5.35;;;1.40;99.90;;;;;;4972736;28;20050;-70
2021/12/11 06:05:03;;;;;;;5.50;5.00;;;1.40;99.90;;;;;;4973141;28;20113;-70
2021/12/11 06:07:30;;;;;;;7.63;5.63;;;1.40;99.90;;;;;;4972336;28;20030;-70
2021/12/11 06:10:06;;;;;;;5.55;4.95;;;1.40;99.90;;;;;;4957739;28;20031;-70
2021/12/11 06:12:31;;;;;;;6.15;5.30;;;1.50;99.90;;;;;;4972376;28;20026;-70
2021/12/11 06:14:58;;;;;;;6.35;5.75;;;1.50;99.90;;;;;;4973153;28;20027;-70
2021/12/11 06:17:31;;;;;;;7.65;6.18;;;1.50;99.90;;;;;;4976749;28;20037;-70
2021/12/11 06:19:59;;;;;;;8.07;6.50;;;1.40;99.90;;;;;;4976195;28;20039;-70
2021/12/11 06:22:30;;;;;;;7.75;6.70;;;1.50;99.90;;;;;;4962062;28;20023;-70
2021/12/11 06:24:59;;;;;;;7.03;6.32;;;1.50;99.90;;;;;;4976684;28;20035;-70
2021/12/11 06:27:26;;;;;;;8.15;7.35;;;1.50;99.90;;;;;;4976337;28;20113;-69
2021/12/11 06:29:53;;;;;;;7.18;6.32;;;1.50;99.90;;;;;;4977235;28;20077;-69
2021/12/11 06:32:18;;;;;;;7.38;6.10;;;1.50;99.90;;;;;;4976075;28;20472;-70
2021/12/11 06:34:45;;;;;;;7.68;6.68;;;1.50;99.90;;;;;;4975229;28;20031;-70
2021/12/11 06:37:14;;;;;;;9.13;7.45;;;1.50;99.90;;;;;;4972651;28;20039;-70
2021/12/11 06:39:40;;;;;;;8.80;7.97;;;1.50;99.90;;;;;;4965902;28;20045;-70
2021/12/11 06:42:11;;;;;;;9.90;8.50;;;1.50;99.90;;;;;;4971225;28;20058;-69
2021/12/11 06:44:38;;;;;;;10.00;8.48;;;1.50;99.90;;;;;;4965891;28;20031;-69
2021/12/11 06:47:09;;;;;;;8.68;7.40;;;1.50;99.90;;;;;;4967340;28;20035;-71
2021/12/11 06:49:36;;;;;;;10.48;8.95;;;1.40;99.90;;;;;;4963606;28;20023;-71
2021/12/11 06:52:06;;;;;;;10.13;8.68;;;1.40;99.90;;;;;;4966969;28;20464;-71
2021/12/11 06:54:32;;;;;;;11.55;7.85;;;1.40;99.90;;;;;;4965204;28;20482;-71
2021/12/11 06:56:58;;;;;;;9.88;8.27;;;1.50;99.90;;;;;;4965868;28;20054;-71
2021/12/11 06:59:24;;;;;;;10.50;9.02;;;1.50;99.90;;;;;;4968321;28;20031;-71
2021/12/11 07:01:50;;;;;;;12.57;9.85;;;1.50;99.90;;;;;;4967457;28;20105;-71
2021/12/11 07:04:15;;;;;;;13.23;10.10;;;1.50;99.90;;;;;;4969333;28;20035;-70
2021/12/11 07:06:45;;;;;;;13.35;10.82;;;1.50;99.90;;;;;;4963178;28;20024;-70
2021/12/11 07:09:12;;;;;;;14.18;11.45;;;1.40;99.90;;;;;;4967002;28;20030;-70
2021/12/11 07:11:42;;;;;;;11.88;9.57;;;1.50;99.90;;;;;;4967038;28;20038;-70
2021/12/11 07:14:09;;;;;;;12.40;9.50;;;1.50;99.90;;;;;;4966592;28;20349;-70
2021/12/11 07:16:35;;;;;;;11.18;9.10;;;1.60;99.90;;;;;;4964746;28;20035;-70
2021/12/11 07:19:01;;;;;;;10.77;8.93;;;1.60;99.90;;;;;;4963537;28;20109;-70
2021/12/11 07:21:27;;;;;;;12.05;8.75;;;1.50;99.90;;;;;;4966349;28;20494;-70
2021/12/11 07:23:52;;;;;;;12.50;9.88;;;1.60;99.90;;;;;;4964975;28;20031;-70
2021/12/11 07:26:30;;;;;;;13.98;11.07;;;1.60;99.90;;;;;;4964106;28;20031;-71
2021/12/11 07:29:01;;;;;;;14.98;9.80;;;1.60;99.90;;;;;;4963334;28;20047;-70
2021/12/11 07:31:27;;;;;;;14.77;10.18;;;1.60;99.90;;;;;;4964907;28;20027;-71
2021/12/11 07:33:53;;;;;;;12.27;10.20;;;1.60;99.90;;;;;;4964372;28;20069;-70
2021/12/11 07:36:20;;;;;;;13.15;9.20;;;1.70;99.90;;;;;;4965076;28;20034;-70
2021/12/11 07:38:46;;;;;;;15.20;10.52;;;1.70;99.90;;;;;;4962514;28;20059;-70
2021/12/11 07:41:13;;;;;;;13.43;10.43;;;1.70;99.90;;;;;;4963073;28;20544;-70
2021/12/11 07:43:41;;;;;;;15.10;9.70;;;1.70;99.90;;;;;;4964619;28;20054;-70
2021/12/11 07:46:09;;;;;;;13.77;10.93;;;1.80;99.90;;;;;;4968161;28;20046;-71
2021/12/11 07:48:35;;;;;;;14.68;11.15;;;1.80;99.90;;;;;;4965030;28;20358;-71
2021/12/11 07:51:01;;;;;;;14.02;10.45;;;1.70;99.90;;;;;;4967039;28;20034;-68
2021/12/11 07:53:27;;;;;;;15.63;11.23;;;1.70;99.90;;;;;;4963240;28;20031;-72
2021/12/11 07:55:54;;;;;;;17.40;13.13;;;1.70;99.90;;;;;;4964797;28;20041;-71
2021/12/11 07:58:20;;;;;;;17.95;12.98;;;1.70;99.90;;;;;;4965633;28;20039;-70
2021/12/11 08:00:47;;;;;;;17.50;13.18;;;1.70;99.90;;;;;;4964918;28;20034;-69
2021/12/11 08:03:14;;;;;;;18.35;12.98;;;1.80;99.90;;;;;;4962921;28;20039;-71
2021/12/11 08:05:41;;;;;;;14.88;12.07;;;1.80;99.90;;;;;;4966108;28;20035;-72
2021/12/11 08:08:10;;;;;;;17.23;12.73;;;1.80;99.90;;;;;;4963474;28;20448;-71
2021/12/11 08:10:37;;;;;;;17.70;12.88;;;1.80;99.90;;;;;;4963455;28;20039;-71
2021/12/11 08:13:04;;;;;;;17.50;13.10;;;1.80;99.90;;;;;;4964826;28;20035;-73
2021/12/11 08:15:30;;;;;;;19.42;13.43;;;1.90;99.90;;;;;;4964087;28;20106;-73
2021/12/11 08:17:56;;;;;;;15.98;12.30;;;1.80;99.90;;;;;;4962328;28;20480;-73
2021/12/11 08:20:25;;;;;;;18.85;14.60;;;1.90;99.90;;;;;;4963705;28;20027;-72
2021/12/11 08:22:52;;;;;;;21.98;13.93;;;1.80;99.90;;;;;;4963122;28;20378;-72
2021/12/11 08:25:19;;;;;;;18.25;12.43;;;1.80;99.90;;;;;;4964459;28;20031;-72
2021/12/11 08:27:46;;;;;;;20.05;12.13;;;1.90;99.90;;;;;;4961102;28;20034;-71
2021/12/11 08:30:12;;;;;;;17.08;12.63;;;1.80;99.90;;;;;;4961930;28;20477;-69
2021/12/11 08:32:38;;;;;;;21.58;13.80;;;1.80;99.90;;;;;;4962206;28;20026;-72
2021/12/11 08:35:07;;;;;;;16.25;12.15;;;1.70;99.90;;;;;;4963577;28;20403;-70
2021/12/11 08:37:33;;;;;;;18.42;11.68;;;1.80;99.90;;;;;;4961328;28;20031;-71
2021/12/11 08:39:59;;;;;;;17.75;12.75;;;1.90;99.90;;;;;;4962423;28;20042;-71
2021/12/11 08:42:26;;;;;;;17.75;12.60;;;1.90;99.90;;;;;;4963287;28;20035;-70
2021/12/11 08:44:59;;;;;;;17.38;12.18;;;1.90;99.90;;;;;;4962838;28;20162;-73
2021/12/11 08:47:25;;;;;;;18.05;13.35;;;1.90;99.90;;;;;;4963614;28;20086;-70
2021/12/11 08:49:53;;;;;;;19.55;13.20;;;1.80;99.90;;;;;;4960852;28;20212;-70
2021/12/11 08:52:35;;;;;;;16.55;11.60;;;1.90;99.90;;;;;;4961811;28;20031;-70
2021/12/11 08:55:05;;;;;;;18.95;12.60;;;1.90;99.90;;;;;;4967387;28;20091;-70
2021/12/11 08:57:36;;;;;;;20.40;13.10;;;1.90;99.90;;;;;;4962863;28;20043;-72
2021/12/11 09:00:30;;;;;;;16.30;11.50;;;1.90;99.90;;;;;;4964235;28;20041;-71
2021/12/11 09:03:05;;;;;;;16.10;10.38;;;2.00;99.90;;;;;;4960857;28;20047;-71
2021/12/11 09:05:55;;;;;;;17.85;12.45;;;2.10;99.90;;;;;;4968773;28;20038;-72
2021/12/11 09:08:37;;;;;;;19.02;11.98;;;2.10;99.90;;;;;;4972672;28;20046;-71
2021/12/11 09:11:14;;;;;;;17.08;10.90;;;2.10;99.90;;;;;;4963635;28;20023;-70
2021/12/11 09:13:53;;;;;;;13.73;10.77;;;2.10;99.90;;;;;;4968983;28;20026;-70
2021/12/11 09:16:24;;;;;;;14.98;11.95;;;2.10;99.90;;;;;;4981408;28;20145;-70
2021/12/11 09:18:53;;;;;;;14.40;11.30;;;2.20;99.90;;;;;;4986383;28;20115;-71
2021/12/11 09:21:26;;;;;;;18.13;12.98;;;2.20;99.90;;;;;;4971580;28;20473;-69
2021/12/11 09:24:09;;;;;;;17.33;11.60;;;2.20;99.90;;;;;;4972081;28;20106;-70
2021/12/11 09:26:45;;;;;;;14.85;10.52;;;2.30;99.90;;;;;;4972072;28;20042;-68
2021/12/11 09:29:18;;;;;;;16.00;11.57;;;2.30;99.90;;;;;;4976832;28;20054;-69
2021/12/11 09:32:04;;;;;;;17.73;10.30;;;2.40;99.90;;;;;;4976803;28;20031;-70
2021/12/11 09:34:44;;;;;;;16.15;10.73;;;2.50;99.90;;;;;;4971141;28;20046;-77
2021/12/11 09:37:11;;;;;;;14.23;9.63;;;2.60;99.90;;;;;;4972229;28;20031;-69
2021/12/11 09:39:51;;;;;;;17.20;10.88;;;2.70;99.90;;;;;;4971962;28;20039;-72
2021/12/11 09:42:17;;;;;;;12.85;10.35;;;2.80;99.90;;;;;;4956509;28;20066;-70
2021/12/11 09:44:52;;;;;;;12.57;9.88;;;2.80;99.90;;;;;;4966549;28;20077;-72
2021/12/11 09:47:31;;;;;;;15.75;10.77;;;2.80;99.90;;;;;;4972934;28;20041;-72
2021/12/11 09:50:04;;;;;;;12.65;9.85;;;2.90;99.90;;;;;;4972472;28;20154;-69
2021/12/11 09:52:32;;;;;;;11.80;9.38;;;2.90;99.90;;;;;;4986813;28;20045;-77
2021/12/11 09:55:15;;;;;;;11.57;9.23;;;3.00;99.90;;;;;;4992273;28;20392;-73
2021/12/11 09:57:46;;;;;;;14.02;9.80;;;3.10;99.90;;;;;;4974578;28;20062;-71
2021/12/11 10:00:24;;;;;;;14.32;8.80;;;3.20;99.90;;;;;;4969330;28;20035;-74
2021/12/11 10:02:52;;;;;;;11.95;8.70;;;3.30;99.90;;;;;;4975805;28;20031;-72
2021/12/11 10:05:38;;;;;;;11.65;8.60;;;3.30;99.90;;;;;;4970037;28;20150;-69
2021/12/11 10:11:06;;;;;;;11.07;7.80;;;3.40;99.90;;;;;;4975233;28;20053;-69
2021/12/11 10:13:35;;;;;;;9.90;7.93;;;3.40;99.90;;;;;;4975584;28;20031;-70
2021/12/11 10:16:01;;;;;;;8.88;7.30;;;3.50;99.90;;;;;;4976063;28;20031;-69
2021/12/11 10:18:28;;;;;;;11.57;7.75;;;3.50;99.90;;;;;;4976298;28;20035;-74
2021/12/11 10:21:07;;;;;;;8.05;6.50;;;3.60;99.90;;;;;;4972490;28;20476;-72
2021/12/11 10:23:36;;;;;;;8.13;6.18;;;3.70;99.90;;;;;;4975586;28;20033;-76
2021/12/11 10:26:10;;;;;;;9.45;7.07;;;3.60;99.90;;;;;;4975601;28;20391;-75
2021/12/11 10:28:36;;;;;;;10.02;6.95;;;3.60;99.90;;;;;;4975514;28;20043;-75
2021/12/11 10:31:14;;;;;;;10.85;7.90;;;3.60;99.90;;;;;;4975428;28;20019;-75
2021/12/11 10:33:40;;;;;;;9.48;6.45;;;3.60;99.90;;;;;;4975352;28;20034;-74
2021/12/11 10:36:19;;;;;;;6.95;5.85;;;3.80;99.90;;;;;;4975658;28;20055;-73
2021/12/11 10:38:47;;;;;;;9.20;6.38;;;3.80;99.90;;;;;;4975088;28;20042;-70
2021/12/11 10:41:14;;;;;;;9.07;5.93;;;3.80;99.90;;;;;;4975591;28;20030;-71
2021/12/11 10:43:53;;;;;;;9.52;6.05;;;3.80;99.90;;;;;;4974926;28;20101;-71
2021/12/11 10:46:24;;;;;;;7.03;5.50;;;3.90;99.90;;;;;;4975931;28;20030;-71
2021/12/11 10:48:52;;;;;;;19.83;9.25;;;3.90;99.90;;;;;;4974715;28;20029;-71
2021/12/11 10:51:29;;;;;;;11.40;6.20;;;4.00;99.90;;;;;;4973935;28;20046;-71
2021/12/11 10:53:55;;;;;;;8.55;5.68;;;;;;;;;;4974784;28;20235;-70
2021/12/11 10:56:22;;;;;;;7.55;5.60;;;;;;;;;;4975204;28;20047;-68
2021/12/11 10:58:50;;;;;;;6.88;5.05;;;;;;;;;;4975013;28;20497;-68
2021/12/11 11:01:24;;;;;;;7.28;5.15;;;;;;;;;;4974977;28;20037;-68
2021/12/11 11:03:54;;;;;;;8.93;5.70;;;;;;;;;;4974285;28;20026;-69
2021/12/11 11:06:20;;;;;;;9.47;5.70;;;;;;;;;;4964537;28;20055;-69
2021/12/11 11:08:46;;;;;;;7.05;5.63;;;;;;;;;;4975213;28;20037;-69
2021/12/11 11:11:16;;;;;;;7.07;5.43;;;;;;;;;;4975263;28;20027;-69
2021/12/11 11:13:42;;;;;;;9.10;5.60;;;;;;;;;;4975066;28;20404;-68
2021/12/11 11:16:09;;;;;;;7.10;5.47;;;;;;;;;;4975463;28;20030;-68
2021/12/11 11:18:36;;;;;;;7.07;5.20;;;;;;;;;;4974825;28;20037;-68
2021/12/11 11:21:05;;;;;;;8.20;5.78;;;;;;;;;;4974634;28;20076;-68
2021/12/11 11:23:31;;;;;;;7.03;5.43;;;;;;;;;;4975049;28;20108;-67
2021/12/11 11:26:00;;;;;;;8.32;5.70;;;;;;;;;;4974476;28;20034;-68
2021/12/11 11:28:27;;;;;;;6.38;5.03;;;;;;;;;;4975214;28;20086;-68
2021/12/11 11:30:55;;;;;;;7.60;5.50;;;;;;;;;;4973951;28;20030;-68
2021/12/11 11:33:21;;;;;;;6.43;5.20;;;;;;;;;;4975220;28;20034;-69
2021/12/11 11:35:48;;;;;;;7.80;6.20;;;;;;;;;;4974251;28;20060;-68
2021/12/11 11:38:20;;;;;;;8.07;4.95;;;;;;;;;;4974884;28;20031;-68
2021/12/11 11:40:48;;;;;;;7.45;5.18;;;;;;;;;;4974447;28;20472;-67
2021/12/11 11:43:14;;;;;;;7.50;5.78;;;;;;;;;;4974396;28;20037;-70
2021/12/11 11:45:40;;;;;;;8.80;6.35;;;;;;;;;;4973976;28;20110;-68
2021/12/11 11:48:07;;;;;;;7.78;5.30;;;;;;;;;;4974686;28;20035;-68
2021/12/11 11:50:35;;;;;;;8.18;5.03;;;;;;;;;;4973785;28;20022;-68
2021/12/11 11:53:03;;;;;;;10.60;6.03;;;;;;;;;;4973899;28;20045;-73
2021/12/11 11:55:31;;;;;;;9.05;5.57;;;;;;;;;;4974608;28;20027;-79
2021/12/11 11:57:58;;;;;;;8.82;5.22;;;;;;;;;;4972608;28;20559;-74
2021/12/11 12:00:24;;;;;;;7.30;5.25;;;;;;;;;;4990682;28;20022;-75
2021/12/11 12:02:51;;;;;;;7.25;5.00;;;;;;;;;;4992304;28;20053;-71
2021/12/11 12:05:19;;;;;;;8.65;5.97;;;;;;;;;;4974582;28;20023;-73
2021/12/11 12:07:46;;;;;;;7.43;5.22;;;;;;;;;;4973561;28;20026;-71
2021/12/11 12:10:15;;;;;;;9.23;5.90;;;;;;;;;;4973927;28;20030;-75
2021/12/11 12:12:41;;;;;;;10.52;5.18;;;;;;;;;;4973002;28;20074;-73
2021/12/11 12:15:09;;;;;;;6.82;5.20;;;;;;;;;;4973758;28;20114;-72
2021/12/11 12:17:36;;;;;;;6.28;4.63;;;;;;;;;;4973462;28;20433;-76
2021/12/11 12:20:06;;;;;;;9.77;5.53;;;;;;;;;;4973679;28;20029;-74
2021/12/11 12:22:32;;;;;;;6.72;5.18;;;;;;;;;;4974457;28;20109;-74
2021/12/11 12:24:58;;;;;;;7.10;5.30;;;;;;;;;;4973365;28;20063;-74
2021/12/11 12:27:26;;;;;;;8.43;5.80;;;;;;;;;;4967189;28;20031;-74
2021/12/11 12:29:52;;;;;;;7.22;5.43;;;;;;;;;;4985814;28;20105;-73
2021/12/11 12:32:22;;;;;;;6.75;4.55;;;;;;;;;;4993436;28;20077;-73
2021/12/11 12:34:48;;;;;;;10.23;5.78;;;;;;;;;;4976680;28;20023;-74
2021/12/11 12:37:15;;;;;;;7.53;5.53;;;;;;;;;;4973391;28;20041;-73
2021/12/11 12:39:43;;;;;;;8.07;5.90;;;;;;;;;;4972989;28;20458;-73
2021/12/11 12:42:22;;;;;;;6.50;4.70;;;;;;;;;;4973346;28;20451;-73
2021/12/11 12:44:50;;;;;;;6.68;4.75;;;;;;;;;;4978950;28;20555;-76
2021/12/11 12:47:18;;;;;;;7.07;5.15;;;;;;;;;;4978233;28;20038;-71
2021/12/11 12:49:45;;;;;;;9.15;5.68;;;;;;;;;;4972848;28;20033;-72
2021/12/11 12:52:15;;;;;;;8.30;5.03;;;;;;;;;;4973061;28;20370;-74
2021/12/11 12:54:41;;;;;;;7.00;4.75;;;;;;;;;;4972687;28;20384;-71
2021/12/11 12:57:14;;;;;;;6.60;5.10;;;;;;;;;;4969548;28;20057;-70
2021/12/11 12:59:42;;;;;;;7.65;4.90;;;;;;;;;;4973470;28;20109;-73
2021/12/11 13:02:10;;;;;;;7.97;5.80;;;;;;;;;;4974579;28;20055;-73
2021/12/11 13:04:39;;;;;;;9.73;5.18;;;;;;;;;;4987439;28;20396;-75
2021/12/11 13:07:06;;;;;;;6.10;4.85;;;;;;;;;;4992355;28;20408;-73
2021/12/11 13:09:41;;;;;;;7.35;3.83;;;;;;;;;;4993001;28;20029;-70
2021/12/11 13:12:13;;;;;;;5.57;4.15;;;;;;;;;;4988083;28;20361;-70
2021/12/11 13:14:40;;;;;;;5.78;4.32;;;;;;;;;;4972925;28;20022;-70
2021/12/11 13:17:11;;;;;;;7.47;4.38;;;;;;;;;;4973153;28;20039;-71
2021/12/11 13:19:39;;;;;;;7.72;4.00;;;;;;;;;;4973342;28;20030;-73
2021/12/11 13:22:08;;;;;;;6.35;4.18;;;;;;;;;;4973586;28;20105;-71
2021/12/11 13:24:34;;;;;;;6.55;5.07;;;;;;;;;;4973136;28;20399;-72
2021/12/11 13:27:02;;;;;;;7.43;4.22;;;;;;;;;;4972497;28;20519;-74
2021/12/11 13:29:30;;;;;;;8.27;4.85;;;;;;;;;;4972287;28;20059;-76
2021/12/11 13:32:00;;;;;;;6.18;4.20;;;;;;;;;;4972046;28;20078;-72
2021/12/11 13:34:26;;;;;;;;;;;;;;;;;;4973898;28;20051;-78
2021/12/11 13:36:52;;;;;;;7.57;4.50;;;;;;;;;;4972936;28;20438;-79
2021/12/11 13:39:18;;;;;;;7.07;4.93;;;;;;;;;;4973218;28;20031;-82
2021/12/11 13:41:46;;;;;;;8.18;4.93;;;;;;;;;;4971410;28;20073;-73
2021/12/11 13:44:14;;;;;;;8.73;4.97;;;;;;;;;;4972736;28;20594;-75
2021/12/11 13:46:41;;;;;;;5.93;4.60;;;;;;;;;;4972946;28;20034;-79